Time;durP1;ratioP1;P1;durP2;ratioP2;P2;SDS_P1;SDS_P2;PMS_P1;PMS_P2;Temp;Humidity;BMP_temperature;BMP_pressure;BME280_temperature;BME280_humidity;BME280_pressure;Samples;Min_cycle;Max_cycle;Signal;HPM_P1;HPM_P2
2023/12/19 00:02:18;;;;;;;;;;;;;;;10.08;100.00;101050.59;4997776;28;19955;-96
2023/12/19 00:04:44;;;;;;;;;;;;;;;10.07;100.00;101043.66;5006623;28;20374;-96
2023/12/19 00:07:27;;;;;;;;;;;;;;;10.08;100.00;101050.59;5027857;28;19929;-95
2023/12/19 00:09:56;;;;;;;;;;;;;;;10.06;100.00;101039.34;5031234;28;19917;-95
2023/12/19 00:12:22;;;;;;;;;;;;;;;10.07;100.00;101030.44;5027733;28;19921;-96
2023/12/19 00:14:53;;;;;;;;;;;;;;;10.05;100.00;101029.72;5022872;28;19921;-95
2023/12/19 00:17:21;;;;;;;;;;;;;;;10.06;100.00;101031.41;5011499;28;19918;-95
2023/12/19 00:19:49;;;;;;;;;;;;;;;10.03;100.00;101042.25;5009670;28;19924;-95
2023/12/19 00:22:17;;;;;;;;;;;;;;;10.02;100.00;101046.69;5021910;28;19917;-95
2023/12/19 00:24:48;;;;;;;;;;;;;;;10.02;100.00;101037.91;5012279;28;19917;-95
2023/12/19 00:27:27;;;;;;;;;;;;;;;10.01;100.00;101034.44;5010536;28;19952;-95
2023/12/19 00:29:53;;;;;;;;;;;;;;;10.01;100.00;101031.81;5025447;28;19952;-95
2023/12/19 00:32:22;;;;;;;;;;;;;;;10.01;100.00;101028.31;4998874;28;20624;-96
2023/12/19 00:35:06;;;;;;;;;;;;;;;10.00;100.00;101027.47;5013222;28;19934;-95
2023/12/19 00:37:32;;;;;;;;;;;;;;;9.99;100.00;101024.94;5031898;28;19921;-95
2023/12/19 00:39:58;;;;;;;;;;;;;;;9.98;100.00;101028.56;5017185;28;20289;-95
2023/12/19 00:42:26;;;;;;;;;;;;;;;9.97;100.00;101027.72;5001168;28;19917;-94
2023/12/19 00:44:55;;;;;;;;;;;;;;;9.96;100.00;101028.69;5014539;28;19982;-95
2023/12/19 00:47:33;;;;;;;;;;;;;;;9.95;100.00;101034.09;5003065;28;19925;-96
2023/12/19 00:50:02;;;;;;;;;;;;;;;9.92;100.00;101024.63;5000395;28;19936;-96
2023/12/19 00:52:30;;;;;;;;;;;;;;;9.90;100.00;101026.56;4995335;28;20430;-95
2023/12/19 00:54:56;;;;;;;;;;;;;;;9.89;100.00;101031.00;5006319;28;19917;-96
2023/12/19 00:57:36;;;;;;;;;;;;;;;9.90;100.00;101030.03;5031222;28;19921;-96
2023/12/19 01:00:04;;;;;;;;;;;;;;;9.90;100.00;101022.13;5002505;28;19928;-96
2023/12/19 01:02:32;;;;;;;;;;;;;;;9.89;100.00;101019.63;5009960;28;19924;-94
2023/12/19 01:04:58;;;;;;;;;;;;;;;9.86;100.00;101022.50;5028201;28;19916;-94
2023/12/19 01:07:27;;;;;;;;;;;;;;;9.86;100.00;101030.44;5016051;28;19925;-96
2023/12/19 01:09:53;;;;;;;;;;;;;;;9.84;100.00;101022.63;5017211;28;19920;-95
2023/12/19 01:12:21;;;;;;;;;;;;;;;9.82;100.00;101024.53;5028276;28;20390;-95
2023/12/19 01:14:47;;;;;;;;;;;;;;;9.82;100.00;101036.91;5014604;28;19917;-95
2023/12/19 01:17:13;;;;;;;;;;;;;;;9.83;100.00;101014.81;4999226;28;20416;-96
2023/12/19 01:19:39;;;;;;;;;;;;;;;9.82;100.00;101021.06;4998069;28;20008;-95
2023/12/19 01:22:07;;;;;;;;;;;;;;;9.81;100.00;101012.28;5032255;28;19918;-95
2023/12/19 01:24:35;;;;;;;;;;;;;;;9.80;100.00;101014.09;5000625;28;19924;-96
2023/12/19 01:27:01;;;;;;;;;;;;;;;9.82;100.00;101005.22;5014092;28;19961;-95
2023/12/19 01:29:27;;;;;;;;;;;;;;;9.82;100.00;101005.22;5047140;28;19917;-95
2023/12/19 01:31:53;;;;;;;;;;;;;;;9.83;100.00;101013.00;5016628;28;19928;-95
2023/12/19 01:34:19;;;;;;;;;;;;;;;9.86;100.00;101004.03;5000426;28;19940;-95
2023/12/19 01:36:48;;;;;;;;;;;;;;;9.86;100.00;100998.75;5027711;28;19921;-95
2023/12/19 01:39:16;;;;;;;;;;;;;;;9.84;100.00;100987.47;5013529;28;20366;-96
2023/12/19 01:41:42;;;;;;;;;;;;;;;9.85;100.00;100987.34;4997332;28;19927;-95
2023/12/19 01:44:17;;;;;;;;;;;;;;;9.84;100.00;100993.59;5003696;28;19983;-96
2023/12/19 01:46:47;;;;;;;;;;;;;;;9.84;100.00;100985.66;5033903;28;20019;-95
2023/12/19 01:49:27;;;;;;;;;;;;;;;9.82;100.00;100981.44;5031394;28;19936;-96
2023/12/19 01:51:53;;;;;;;;;;;;;;;9.76;100.00;100982.81;5006607;28;19928;-96
2023/12/19 01:54:20;;;;;;;;;;;;;;;9.73;100.00;100975.13;5010834;28;19917;-96
2023/12/19 01:56:49;;;;;;;;;;;;;;;9.67;100.00;100979.09;5000245;28;19941;-95
2023/12/19 01:59:16;;;;;;;;;;;;;;;9.64;100.00;100982.00;5015063;28;20464;-96
2023/12/19 02:01:42;;;;;;;;;;;;;;;9.62;100.00;100973.38;5001267;28;19925;-95
2023/12/19 02:04:18;;;;;;;;;;;;;;;9.62;100.00;100966.28;5002090;28;20389;-96
2023/12/19 02:07:00;;;;;;;;;;;;;;;9.63;100.00;100967.97;5050978;28;19924;-96
2023/12/19 02:09:44;;;;;;;;;;;;;;;;;;;;;
2023/12/19 02:12:12;;;;;;;;;;;;;;;9.65;100.00;100981.06;5029856;28;20029;-95
2023/12/19 02:14:51;;;;;;;;;;;;;;;9.65;100.00;100978.41;5030812;28;19945;-96
2023/12/19 02:20:44;;;;;;;;;;;;;;;9.69;100.00;100977.19;5011374;28;19918;-95
2023/12/19 02:23:11;;;;;;;;;;;;;;;9.69;100.00;100977.19;4992166;28;19918;-95
2023/12/19 02:25:46;;;;;;;;;;;;;;;9.72;100.00;100973.44;5029824;28;19924;-96
2023/12/19 02:28:42;;;;;;;;;;;;;;;9.73;100.00;100975.13;5030732;28;19983;-96
2023/12/19 02:31:37;;;;;;;;;;;;;;;9.74;100.00;100968.88;5042080;28;19921;-96
2023/12/19 02:34:30;;;;;;;;;;;;;;;9.74;100.00;100980.28;5045828;28;20014;-95
2023/12/19 02:36:56;;;;;;;;;;;;;;;9.77;100.00;100969.47;5027413;28;19968;-95
2023/12/19 02:39:31;;;;;;;;;;;;;;;9.76;100.00;100977.53;5030364;28;20439;-96
2023/12/19 02:42:00;;;;;;;;;;;;;;;9.74;100.00;100972.38;5041549;28;19917;-96
2023/12/19 02:44:25;;;;;;;;;;;;;;;9.73;100.00;100978.59;5004886;28;20002;-96
2023/12/19 02:46:51;;;;;;;;;;;;;;;9.74;100.00;100984.72;5028312;28;19972;-96
2023/12/19 02:49:17;;;;;;;;;;;;;;;9.74;100.00;100982.09;4994965;28;19932;-96
2023/12/19 02:51:43;;;;;;;;;;;;;;;9.73;100.00;100983.88;5015186;28;19917;-95
2023/12/19 02:54:09;;;;;;;;;;;;;;;9.75;100.00;100991.66;5013028;28;19917;-95
2023/12/19 02:56:35;;;;;;;;;;;;;;;9.75;100.00;100983.75;5000254;28;19917;-95
2023/12/19 02:59:01;;;;;;;;;;;;;;;9.74;100.00;100980.28;5013450;28;19967;-96
2023/12/19 03:01:27;;;;;;;;;;;;;;;9.75;100.00;100986.38;5013809;28;19916;-96
2023/12/19 03:03:53;;;;;;;;;;;;;;;9.73;100.00;100978.59;5014391;28;19918;-95
2023/12/19 03:06:18;;;;;;;;;;;;;;;9.73;100.00;100978.59;5014668;28;20271;-95
2023/12/19 03:08:45;;;;;;;;;;;;;;;9.73;100.00;100970.69;5013993;28;19925;-95
2023/12/19 03:11:16;;;;;;;;;;;;;;;9.74;100.00;100977.66;5014817;28;19921;-96
2023/12/19 03:13:52;;;;;;;;;;;;;;;9.71;100.00;100972.63;5017990;28;19917;-96
2023/12/19 03:16:33;;;;;;;;;;;;;;;9.70;100.00;100970.94;5033472;28;19925;-96
2023/12/19 03:18:59;;;;;;;;;;;;;;;9.68;100.00;100968.41;5046551;28;20022;-96
2023/12/19 03:21:24;;;;;;;;;;;;;;;9.67;100.00;100976.47;5016920;28;19980;-95
2023/12/19 03:23:55;;;;;;;;;;;;;;;9.66;100.00;100967.72;5034715;28;19960;-95
2023/12/19 03:32:02;;;;;;;;;;;;;;;9.62;100.00;100961.00;5744338;22;19929;-91
2023/12/19 03:34:29;;;;;;;;;;;;;;;9.63;100.00;100956.56;5039340;28;19921;-92
2023/12/19 03:37:12;;;;;;;;;;;;;;;9.66;100.00;100961.59;5229306;22;19971;-91
2023/12/19 03:39:49;;;;;;;;;;;;;;;9.67;100.00;100956.19;4984568;28;19975;-91
2023/12/19 03:42:15;;;;;;;;;;;;;;;9.66;100.00;100948.41;4981015;28;20366;-91
2023/12/19 03:44:49;;;;;;;;;;;;;;;9.64;100.00;100958.22;4980937;28;19917;-91
2023/12/19 03:47:26;;;;;;;;;;;;;;;9.65;100.00;100967.84;4981927;28;19918;-93
2023/12/19 03:50:02;;;;;;;;;;;;;;;9.64;100.00;100953.81;4996579;28;19944;-92
2023/12/19 03:52:41;;;;;;;;;;;;;;;9.62;100.00;100960.19;5016152;28;19918;-92
2023/12/19 03:55:21;;;;;;;;;;;;;;;9.58;100.00;100961.38;5000981;28;19924;-93
2023/12/19 03:57:47;;;;;;;;;;;;;;;9.50;100.00;100973.41;5015960;28;19918;-93
2023/12/19 04:00:18;;;;;;;;;;;;;;;9.34;100.00;100975.59;4993374;28;19968;-94
2023/12/19 04:02:58;;;;;;;;;;;;;;;9.21;100.00;100983.63;4994681;28;19972;-92
2023/12/19 04:05:37;;;;;;;;;;;;;;;9.04;100.00;100983.19;4996510;28;20450;-92
2023/12/19 04:08:57;;;;;;;;;;;;;;;8.83;100.00;100975.16;4999305;28;19917;-93
2023/12/19 04:12:16;;;;;;;;;;;;;;;8.61;100.00;100979.47;5000793;28;20289;-93
2023/12/19 04:14:38;;;;;;;;;;;;;;;8.49;100.00;100979.41;4991867;28;19990;-94
2023/12/19 04:17:14;;;;;;;;;;;;;;;8.46;100.00;100984.09;4993624;28;20004;-93
2023/12/19 04:19:56;;;;;;;;;;;;;;;8.47;100.00;100986.63;4996285;28;19926;-92
2023/12/19 04:22:47;;;;;;;;;;;;;;;8.36;100.00;101000.56;4985250;28;19921;-93
2023/12/19 04:25:28;;;;;;;;;;;;;;;8.29;100.00;100992.31;4999128;28;20016;-93
2023/12/19 04:31:30;;;;;;;;;;;;;;;8.18;100.00;101008.06;4996403;28;20020;-92
2023/12/19 04:34:19;;;;;;;;;;;;;;;8.14;100.00;101017.13;4996421;28;19918;-92
2023/12/19 04:36:47;;;;;;;;;;;;;;;8.06;100.00;101020.34;4998674;28;20337;-92
2023/12/19 04:39:21;;;;;;;;;;;;;;;8.02;100.00;101017.13;4985192;28;19924;-93
2023/12/19 04:41:57;;;;;;;;;;;;;;;8.00;100.00;101021.66;4995626;28;19929;-93
2023/12/19 04:47:55;;;;;;;;;;;;;;;7.96;100.00;101024.63;5024735;28;20016;-92
2023/12/19 04:53:53;;;;;;;;;;;;;;;7.88;100.00;101026.03;5089881;22;19991;-96
2023/12/19 04:56:19;;;;;;;;;;;;;;;7.87;100.00;101032.22;5013898;28;20413;-96
2023/12/19 04:58:46;;;;;;;;;;;;;;;7.84;100.00;101037.72;5032954;23;19948;-95
2023/12/19 05:01:12;;;;;;;;;;;;;;;7.81;100.00;101044.06;5040762;28;19925;-95
2023/12/19 05:03:39;;;;;;;;;;;;;;;7.80;100.00;101052.06;4992884;28;19918;-95
2023/12/19 05:06:06;;;;;;;;;;;;;;;7.78;100.00;101049.56;4981328;28;20285;-95
2023/12/19 05:08:31;;;;;;;;;;;;;;;7.78;100.00;101041.66;5016560;28;19928;-96
2023/12/19 05:10:57;;;;;;;;;;;;;;;7.73;100.00;101035.88;5001540;28;19922;-95
2023/12/19 05:13:23;;;;;;;;;;;;;;;7.75;100.00;101039.25;4994793;28;20008;-95
2023/12/19 05:15:49;;;;;;;;;;;;;;;7.78;100.00;101032.91;4994611;28;19922;-95
2023/12/19 05:18:18;;;;;;;;;;;;;;;7.77;100.00;101037.31;4996467;28;19917;-95
2023/12/19 05:20:47;;;;;;;;;;;;;;;7.77;100.00;101032.06;4979040;28;21050;-95
2023/12/19 05:23:12;;;;;;;;;;;;;;;7.79;100.00;101027.53;5013702;28;19917;-95
2023/12/19 05:25:38;;;;;;;;;;;;;;;7.82;100.00;101032.56;5013741;28;19975;-96
2023/12/19 05:28:04;;;;;;;;;;;;;;;7.85;100.00;101030.69;5029486;28;20298;-96
2023/12/19 05:30:29;;;;;;;;;;;;;;;7.87;100.00;101037.50;4998633;28;20004;-95
2023/12/19 05:32:55;;;;;;;;;;;;;;;7.93;100.00;101025.69;4987251;28;19921;-95
2023/12/19 05:35:21;;;;;;;;;;;;;;;7.96;100.00;101040.41;5047041;28;19921;-95
2023/12/19 05:37:46;;;;;;;;;;;;;;;7.96;100.00;101038.63;4977539;28;20375;-95
2023/12/19 05:40:12;;;;;;;;;;;;;;;8.00;100.00;101037.44;5039038;28;19933;-95
2023/12/19 05:42:38;;;;;;;;;;;;;;;8.03;100.00;101033.75;5012842;28;19921;-96
2023/12/19 05:45:03;;;;;;;;;;;;;;;8.07;100.00;101043.94;4993751;28;19993;-94
2023/12/19 05:47:29;;;;;;;;;;;;;;;8.14;100.00;101046.09;5026904;28;20016;-95
2023/12/19 05:49:55;;;;;;;;;;;;;;;8.16;100.00;101058.22;4991246;28;19918;-95
2023/12/19 05:52:20;;;;;;;;;;;;;;;8.19;100.00;101058.00;4996211;28;20289;-96
2023/12/19 05:54:46;;;;;;;;;;;;;;;8.24;100.00;101033.94;4995312;28;19925;-95
2023/12/19 05:57:11;;;;;;;;;;;;;;;8.28;100.00;101034.56;4992426;28;19953;-95
2023/12/19 05:59:37;;;;;;;;;;;;;;;8.31;100.00;101058.03;5018165;28;19917;-95
2023/12/19 06:02:03;;;;;;;;;;;;;;;8.35;100.00;101056.00;5005668;28;19925;-95
2023/12/19 06:04:28;;;;;;;;;;;;;;;8.30;100.00;101061.63;4994358;28;19926;-95
2023/12/19 06:06:54;;;;;;;;;;;;;;;8.26;100.00;101057.53;4995552;28;19922;-96
2023/12/19 06:09:20;;;;;;;;;;;;;;;8.24;100.00;101062.91;4960309;28;19932;-96
2023/12/19 06:11:45;;;;;;;;;;;;;;;8.25;100.00;101067.22;4995665;28;19945;-95
2023/12/19 06:14:11;;;;;;;;;;;;;;;8.24;100.00;101075.25;5005125;28;20378;-95
2023/12/19 06:16:36;;;;;;;;;;;;;;;8.26;100.00;101079.47;4989110;28;19922;-95
2023/12/19 06:19:04;;;;;;;;;;;;;;;8.24;100.00;101085.78;5026885;28;19918;-95
2023/12/19 06:21:29;;;;;;;;;;;;;;;8.22;100.00;101091.16;4998471;28;20310;-96
2023/12/19 06:23:55;;;;;;;;;;;;;;;8.22;100.00;101088.53;4991848;28;19922;-95
2023/12/19 06:26:21;;;;;;;;;;;;;;;8.26;100.00;101092.63;4992304;28;19922;-95
2023/12/19 06:28:46;;;;;;;;;;;;;;;8.28;100.00;101092.50;5002597;28;20008;-95
2023/12/19 06:31:12;;;;;;;;;;;;;;;8.27;100.00;101091.66;5007056;28;19922;-95
2023/12/19 06:33:37;;;;;;;;;;;;;;;8.27;100.00;101107.47;4990762;28;20452;-95
2023/12/19 06:36:03;;;;;;;;;;;;;;;8.26;100.00;101118.13;4970657;28;19961;-94
2023/12/19 06:38:29;;;;;;;;;;;;;;;8.21;100.00;101110.56;5001462;28;19924;-95
2023/12/19 06:40:54;;;;;;;;;;;;;;;8.14;100.00;101125.09;5015143;28;20381;-95
2023/12/19 06:43:20;;;;;;;;;;;;;;;8.12;100.00;101119.94;5001255;28;19922;-94
2023/12/19 06:45:46;;;;;;;;;;;;;;;8.09;100.00;101124.63;5024541;28;20013;-96
2023/12/19 06:48:11;;;;;;;;;;;;;;;8.06;100.00;101121.25;4992076;28;20429;-95
2023/12/19 06:50:39;;;;;;;;;;;;;;;8.03;100.00;101124.09;5016952;28;19922;-95
2023/12/19 06:53:04;;;;;;;;;;;;;;;8.01;100.00;101118.09;5024679;28;19918;-94
2023/12/19 06:55:30;;;;;;;;;;;;;;;8.01;100.00;101112.84;4958687;28;19976;-95
2023/12/19 06:57:56;;;;;;;;;;;;;;;8.01;100.00;101130.44;4992972;28;19928;-95
2023/12/19 07:00:22;;;;;;;;;;;;;;;7.98;100.00;101131.47;4992862;28;19972;-95
2023/12/19 07:02:47;;;;;;;;;;;;;;;7.98;100.00;101134.13;5014968;28;19928;-95
2023/12/19 07:05:13;;;;;;;;;;;;;;;7.94;100.00;101145.81;5001702;28;19918;-95
2023/12/19 07:07:39;;;;;;;;;;;;;;;7.93;100.00;101144.16;4971405;28;19922;-95
2023/12/19 07:10:05;;;;;;;;;;;;;;;7.92;100.00;101150.34;5006978;28;19922;-95
2023/12/19 07:12:30;;;;;;;;;;;;;;;7.88;100.00;101159.44;4972468;28;19921;-95
2023/12/19 07:14:56;;;;;;;;;;;;;;;7.87;100.00;101153.31;5013437;28;20072;-94
2023/12/19 07:17:22;;;;;;;;;;;;;;;7.84;100.00;101147.41;4991464;28;19918;-95
2023/12/19 07:19:47;;;;;;;;;;;;;;;7.80;100.00;101155.53;4989565;28;19922;-95
2023/12/19 07:22:13;;;;;;;;;;;;;;;7.80;100.00;101158.16;5000870;28;19988;-95
2023/12/19 07:24:39;;;;;;;;;;;;;;;7.75;100.00;101162.06;5013067;28;19918;-95
2023/12/19 07:27:05;;;;;;;;;;;;;;;7.72;100.00;101157.88;4989697;28;19917;-96
2023/12/19 07:29:30;;;;;;;;;;;;;;;7.69;100.00;101144.94;4989450;28;19948;-96
2023/12/19 07:31:58;;;;;;;;;;;;;;;7.65;100.00;101151.34;5024499;28;20623;-96
2023/12/19 07:34:23;;;;;;;;;;;;;;;7.63;100.00;101153.28;4990062;28;20000;-96
2023/12/19 07:36:49;;;;;;;;;;;;;;;7.60;100.00;101162.19;4954666;28;20371;-96
2023/12/19 07:39:14;;;;;;;;;;;;;;;7.59;100.00;101168.41;5006435;28;20013;-96
2023/12/19 07:41:40;;;;;;;;;;;;;;;7.56;100.00;101158.09;4999437;28;19929;-96
2023/12/19 07:44:09;;;;;;;;;;;;;;;7.50;100.00;101159.34;5017108;28;20833;-96
2023/12/19 07:46:38;;;;;;;;;;;;;;;7.47;100.00;101169.28;4986444;28;19992;-96
2023/12/19 07:49:03;;;;;;;;;;;;;;;7.44;100.00;101172.94;4987050;28;19937;-96
2023/12/19 07:51:29;;;;;;;;;;;;;;;7.46;100.00;101176.31;4991704;28;19917;-96
2023/12/19 07:53:55;;;;;;;;;;;;;;;7.43;100.00;101168.63;4987173;28;20375;-96
2023/12/19 07:56:20;;;;;;;;;;;;;;;7.41;100.00;101176.63;4988269;28;19922;-96
2023/12/19 07:58:46;;;;;;;;;;;;;;;7.36;100.00;101170.00;5008654;28;19934;-96
2023/12/19 08:01:12;;;;;;;;;;;;;;;7.32;100.00;101172.00;5000313;28;19922;-96
2023/12/19 08:03:39;;;;;;;;;;;;;;;7.32;100.00;101182.53;4988793;28;19972;-96
2023/12/19 08:06:05;;;;;;;;;;;;;;;7.26;100.00;101186.41;4986319;28;19948;-96
2023/12/19 08:08:32;;;;;;;;;;;;;;;7.25;100.00;101186.50;5001327;28;19926;-96
2023/12/19 08:10:58;;;;;;;;;;;;;;;7.23;100.00;101196.31;5006218;28;19945;-96
2023/12/19 08:13:23;;;;;;;;;;;;;;;7.18;100.00;101196.63;5006050;28;19987;-96
2023/12/19 08:15:49;;;;;;;;;;;;;;;7.14;100.00;101193.34;4996822;28;19918;-95
2023/12/19 08:18:15;;;;;;;;;;;;;;;7.14;100.00;101192.50;4989796;28;20321;-96
2023/12/19 08:20:41;;;;;;;;;;;;;;;7.16;100.00;101201.13;5002467;28;19921;-95
2023/12/19 08:23:07;;;;;;;;;;;;;;;7.13;100.00;101196.94;4997715;28;19972;-95
2023/12/19 08:25:33;;;;;;;;;;;;;;;7.11;100.00;101203.22;4986633;28;19925;-95
2023/12/19 08:27:59;;;;;;;;;;;;;;;7.07;100.00;101211.31;5001445;28;19922;-95
2023/12/19 08:30:27;;;;;;;;;;;;;;;7.07;100.00;101213.94;4996954;28;20426;-95
2023/12/19 08:32:58;;;;;;;;;;;;;;;7.05;100.00;101215.00;4994653;28;20414;-95
2023/12/19 08:35:24;;;;;;;;;;;;;;;7.03;100.00;101199.31;5005341;28;19918;-95
2023/12/19 08:37:50;;;;;;;;;;;;;;;7.01;100.00;101197.72;4971228;28;20366;-95
2023/12/19 08:40:16;;;;;;;;;;;;;;;6.97;100.00;101202.34;4994488;28;20298;-95
2023/12/19 08:42:42;;;;;;;;;;;;;;;6.93;100.00;101199.09;4998233;28;19927;-95
2023/12/19 08:45:17;;;;;;;;;;;;;;;6.92;100.00;101197.41;5007545;28;19925;-96
2023/12/19 08:47:44;;;;;;;;;;;;;;;6.92;100.00;101201.81;5026988;28;19926;-95
2023/12/19 08:50:11;;;;;;;;;;;;;;;6.83;100.00;101206.72;5009657;28;19921;-95
2023/12/19 08:52:37;;;;;;;;;;;;;;;6.75;100.00;101203.78;5011130;28;19929;-95
2023/12/19 08:55:07;;;;;;;;;;;;;;;6.70;100.00;101211.94;4991656;28;19926;-96
2023/12/19 08:57:40;;;;;;;;;;;;;;;6.65;100.00;101218.44;4988446;28;19922;-95
2023/12/19 09:00:06;;;;;;;;;;;;;;;6.58;100.00;101220.63;4990592;28;20036;-95
2023/12/19 09:02:32;;;;;;;;;;;;;;;6.55;100.00;101226.06;4994046;28;19918;-95
2023/12/19 09:04:57;;;;;;;;;;;;;;;6.47;100.00;101229.19;4993306;28;20220;-95
2023/12/19 09:07:23;;;;;;;;;;;;;;;6.43;100.00;101230.34;4994183;28;19922;-95
2023/12/19 09:09:49;;;;;;;;;;;;;;;6.37;100.00;101234.19;5009352;28;20366;-96
2023/12/19 09:12:14;;;;;;;;;;;;;;;6.32;100.00;101233.66;5013882;28;19925;-96
2023/12/19 09:14:40;;;;;;;;;;;;;;;6.26;100.00;101237.47;4976282;28;19918;-95
2023/12/19 09:17:05;;;;;;;;;;;;;;;6.25;100.00;101232.31;5011454;28;20008;-96
2023/12/19 09:19:34;;;;;;;;;;;;;;;6.24;100.00;101234.13;5011137;28;19940;-96
2023/12/19 09:22:00;;;;;;;;;;;;;;;6.21;100.00;101234.31;4989470;28;19918;-96
2023/12/19 09:24:30;;;;;;;;;;;;;;;6.17;100.00;101240.69;4999264;28;19922;-96
2023/12/19 09:26:56;;;;;;;;;;;;;;;6.16;100.00;101239.84;5022718;28;20039;-95
2023/12/19 09:29:23;;;;;;;;;;;;;;;6.15;100.00;101238.16;5006331;28;19922;-96
2023/12/19 09:31:49;;;;;;;;;;;;;;;6.17;100.00;101240.69;4991258;28;19918;-96
2023/12/19 09:34:14;;;;;;;;;;;;;;;6.19;100.00;101249.31;4989642;28;19918;-96
2023/12/19 09:36:40;;;;;;;;;;;;;;;6.23;100.00;101247.34;4991172;28;19946;-96
2023/12/19 09:39:06;;;;;;;;;;;;;;;6.22;100.00;101253.53;4962465;28;20362;-96
2023/12/19 09:41:32;;;;;;;;;;;;;;;6.26;100.00;101252.41;4993246;28;19918;-96
2023/12/19 09:43:57;;;;;;;;;;;;;;;6.30;100.00;101244.25;4994898;28;19925;-96
2023/12/19 09:46:24;;;;;;;;;;;;;;;6.35;100.00;101237.84;5019822;28;19917;-95
2023/12/19 09:48:50;;;;;;;;;;;;;;;6.39;100.00;101241.94;5007076;28;20375;-96
2023/12/19 09:51:26;;;;;;;;;;;;;;;6.44;100.00;101255.66;5016682;28;19918;-96
2023/12/19 09:53:53;;;;;;;;;;;;;;;6.49;100.00;101258.84;4991840;28;19950;-96
2023/12/19 09:56:19;;;;;;;;;;;;;;;6.54;100.00;101259.41;4991653;28;20386;-96
2023/12/19 09:58:45;;;;;;;;;;;;;;;6.60;100.00;101252.88;5030482;28;19929;-95
2023/12/19 10:01:10;;;;;;;;;;;;;;;6.66;100.00;101251.63;5012888;28;20006;-95
2023/12/19 10:03:36;;;;;;;;;;;;;;;6.72;100.00;101250.41;4991244;28;20024;-96
2023/12/19 10:06:02;;;;;;;;;;;;;;;6.75;100.00;101250.22;5023289;28;19918;-95
2023/12/19 10:08:27;;;;;;;;;;;;;;;6.80;100.00;101253.41;4964099;28;19922;-95
2023/12/19 10:10:53;;;;;;;;;;;;;;;6.84;100.00;101252.25;4990654;28;19922;-95
2023/12/19 10:13:26;;;;;;;;;;;;;;;6.85;100.00;101246.03;4985447;28;19965;-96
2023/12/19 10:16:02;;;;;;;;;;;;;;;6.89;100.00;101244.06;4991090;28;20354;-96
2023/12/19 10:18:27;;;;;;;;;;;;;;;6.88;100.00;101247.66;4970217;28;19918;-95
2023/12/19 10:21:02;;;;;;;;;;;;;;;6.91;100.00;101247.44;5005735;28;19940;-95
2023/12/19 10:23:28;;;;;;;;;;;;;;;6.95;100.00;101257.66;4988153;28;19918;-96
2023/12/19 10:25:53;;;;;;;;;;;;;;;6.97;100.00;101256.69;5024946;28;20386;-95
2023/12/19 10:28:19;;;;;;;;;;;;;;;6.97;100.00;101262.81;5014497;28;19922;-95
2023/12/19 10:30:45;;;;;;;;;;;;;;;7.02;100.00;101255.47;5035748;28;19918;-95
2023/12/19 10:33:10;;;;;;;;;;;;;;;7.05;100.00;101264.94;5005439;28;19921;-95
2023/12/19 10:35:36;;;;;;;;;;;;;;;7.07;100.00;101256.00;5007245;28;19921;-95
2023/12/19 10:38:02;;;;;;;;;;;;;;;7.11;100.00;101261.91;5013267;28;19917;-95
2023/12/19 10:40:28;;;;;;;;;;;;;;;7.14;100.00;101260.84;4997368;28;20391;-96
2023/12/19 10:42:54;;;;;;;;;;;;;;;7.15;100.00;101252.03;5006304;28;19924;-95
2023/12/19 10:45:20;;;;;;;;;;;;;;;7.15;100.00;101254.66;5006262;28;19984;-95
2023/12/19 10:47:46;;;;;;;;;;;;;;;7.16;100.00;101257.19;5006475;28;19932;-96
2023/12/19 10:50:11;;;;;;;;;;;;;;;7.21;100.00;101262.13;5016561;28;19926;-95
2023/12/19 10:52:40;;;;;;;;;;;;;;;7.25;100.00;101268.00;5014368;28;19945;-95
2023/12/19 10:55:09;;;;;;;;;;;;;;;7.29;100.00;101270.34;5004910;28;19925;-95
2023/12/19 10:57:36;;;;;;;;;;;;;;;7.32;100.00;101271.94;5018717;28;19991;-95
2023/12/19 11:00:09;;;;;;;;;;;;;;;7.34;100.00;101270.06;4985358;28;20381;-96
2023/12/19 11:02:35;;;;;;;;;;;;;;;7.38;100.00;101270.69;5016866;28;19922;-96
2023/12/19 11:05:11;;;;;;;;;;;;;;;7.41;100.00;101270.47;5022936;28;19928;-96
2023/12/19 11:07:39;;;;;;;;;;;;;;;7.44;100.00;101270.25;5022326;28;19972;-96
2023/12/19 11:10:05;;;;;;;;;;;;;;;7.46;100.00;101268.38;5017621;28;20013;-95
2023/12/19 11:12:35;;;;;;;;;;;;;;;7.49;100.00;101264.69;4989878;28;19921;-96
2023/12/19 11:15:01;;;;;;;;;;;;;;;7.50;100.00;101264.59;4971934;28;19918;-96
2023/12/19 11:17:32;;;;;;;;;;;;;;;7.53;100.00;101271.44;4972851;28;19928;-96
2023/12/19 11:20:04;;;;;;;;;;;;;;;7.59;100.00;101263.13;5021518;28;19926;-96
2023/12/19 11:22:40;;;;;;;;;;;;;;;7.63;100.00;101269.84;4992355;28;19918;-95
2023/12/19 11:25:22;;;;;;;;;;;;;;;7.65;100.00;101269.75;4991498;28;19922;-95
2023/12/19 11:27:55;;;;;;;;;;;;;;;7.67;100.00;101266.09;4987266;28;19925;-95
2023/12/19 11:30:30;;;;;;;;;;;;;;;7.70;100.00;101272.91;5005529;28;19918;-96
2023/12/19 11:32:55;;;;;;;;;;;;;;;7.74;100.00;101265.66;4990123;28;20064;-96
2023/12/19 11:35:26;;;;;;;;;;;;;;;7.75;100.00;101259.44;5006872;28;20434;-96
2023/12/19 11:38:12;;;;;;;;;;;;;;;7.77;100.00;101262.81;5014054;28;19917;-96
2023/12/19 11:40:50;;;;;;;;;;;;;;;7.87;100.00;101253.34;4984991;28;19929;-95
2023/12/19 11:43:28;;;;;;;;;;;;;;;8.02;100.00;101258.47;4990053;28;20367;-96
2023/12/19 11:46:15;;;;;;;;;;;;;;;8.13;100.00;101255.94;5019885;28;19925;-95
2023/12/19 11:48:44;;;;;;;;;;;;;;;8.17;100.00;101260.03;5008901;28;20052;-96
2023/12/19 11:51:10;;;;;;;;;;;;;;;8.18;100.00;101258.25;4990197;28;20400;-96
2023/12/19 11:53:41;;;;;;;;;;;;;;;8.13;100.00;101248.03;5011435;28;19922;-96
2023/12/19 11:56:12;;;;;;;;;;;;;;;8.09;100.00;101240.47;4988871;28;19918;-95
2023/12/19 11:58:37;;;;;;;;;;;;;;;8.10;100.00;101243.00;4988575;28;19968;-96
2023/12/19 12:01:04;;;;;;;;;;;;;;;8.10;100.00;101245.63;4991368;28;20021;-96
2023/12/19 12:03:30;;;;;;;;;;;;;;;8.14;100.00;101244.44;5002613;28;19914;-96
2023/12/19 12:05:56;;;;;;;;;;;;;;;8.19;100.00;101246.75;4985896;28;19921;-96
2023/12/19 12:08:24;;;;;;;;;;;;;;;8.20;100.00;101237.94;4984605;28;20401;-96
2023/12/19 12:10:57;;;;;;;;;;;;;;;8.22;100.00;101245.72;4958120;28;19932;-96
2023/12/19 12:13:22;;;;;;;;;;;;;;;8.21;100.00;101236.13;4969740;28;20367;-96
2023/12/19 12:15:51;;;;;;;;;;;;;;;8.19;100.00;101239.72;5006766;28;20141;-96
2023/12/19 12:18:17;;;;;;;;;;;;;;;8.16;100.00;101237.28;4994656;28;19922;-96
2023/12/19 12:20:43;;;;;;;;;;;;;;;8.20;100.00;101245.81;5026381;28;19917;-95
2023/12/19 12:23:09;;;;;;;;;;;;;;;8.20;100.00;101248.47;5016093;28;19918;-96
2023/12/19 12:25:34;;;;;;;;;;;;;;;8.18;100.00;101243.31;5022709;28;19924;-96
2023/12/19 12:28:10;;;;;;;;;;;;;;;8.19;100.00;101241.50;4960842;28;19922;-96
2023/12/19 12:30:36;;;;;;;;;;;;;;;8.23;100.00;101235.06;4996771;28;20425;-96
2023/12/19 12:33:03;;;;;;;;;;;;;;;8.34;100.00;101230.81;4958738;28;20051;-96
2023/12/19 12:35:32;;;;;;;;;;;;;;;8.46;100.00;101226.47;4990284;28;20302;-96
2023/12/19 12:38:00;;;;;;;;;;;;;;;8.59;100.00;101236.97;4997010;28;19922;-96
2023/12/19 12:40:26;;;;;;;;;;;;;;;8.68;100.00;101233.66;4991463;28;19940;-96
2023/12/19 12:42:52;;;;;;;;;;;;;;;8.85;100.00;101226.31;5019355;28;19922;-96
2023/12/19 12:45:18;;;;;;;;;;;;;;;8.91;100.00;101234.63;4995744;28;19922;-96
2023/12/19 12:47:43;;;;;;;;;;;;;;;8.92;100.00;101233.66;4996289;28;19937;-96
2023/12/19 12:50:13;;;;;;;;;;;;;;;8.91;100.00;101232.00;5014241;28;19956;-96
2023/12/19 12:52:39;;;;;;;;;;;;;;;8.86;100.00;101235.91;4998561;28;19922;-96
2023/12/19 12:55:06;;;;;;;;;;;;;;;8.79;100.00;101225.81;4992398;28;19929;-96
2023/12/19 12:57:32;;;;;;;;;;;;;;;8.77;100.00;101227.75;5028546;28;19925;-96
2023/12/19 12:59:57;;;;;;;;;;;;;;;8.76;100.00;101219.94;5025558;28;19924;-96
2023/12/19 13:02:24;;;;;;;;;;;;;;;8.74;100.00;101217.44;4983481;28;19918;-96
2023/12/19 13:04:50;;;;;;;;;;;;;;;8.69;100.00;101214.28;4994877;28;19918;-96
2023/12/19 13:07:16;;;;;;;;;;;;;;;8.63;100.00;101212.91;5002275;28;19922;-96